createdAt,value
2018-11-13T00:00:30.700Z,84.30
2018-11-13T00:03:00.823Z,84.30
2018-11-13T00:05:30.370Z,84.30
2018-11-13T00:08:00.039Z,84.10
2018-11-13T00:10:29.414Z,84.00
2018-11-13T00:12:58.539Z,84.10
2018-11-13T00:15:28.118Z,84.40
2018-11-13T00:17:57.712Z,84.60
2018-11-13T00:20:27.512Z,84.90
2018-11-13T00:22:57.595Z,85.10
2018-11-13T00:25:26.820Z,86.10
2018-11-13T00:27:56.385Z,85.30
2018-11-13T00:30:25.753Z,85.30
2018-11-13T00:32:55.318Z,85.30
2018-11-13T00:35:25.294Z,85.20
2018-11-13T00:37:54.441Z,85.50
2018-11-13T00:40:23.655Z,85.50
2018-11-13T00:42:52.963Z,85.50
2018-11-13T00:45:22.413Z,85.50
2018-11-13T00:47:53.147Z,85.50
2018-11-13T00:50:24.955Z,85.30
2018-11-13T00:52:56.347Z,85.30
2018-11-13T00:55:28.670Z,85.10
2018-11-13T00:57:59.705Z,85.00
2018-11-13T01:00:32.921Z,85.40
2018-11-13T01:03:04.393Z,86.90
2018-11-13T01:05:40.287Z,86.50
2018-11-13T01:08:12.417Z,87.50
2018-11-13T01:10:44.667Z,87.30
2018-11-13T01:13:16.319Z,87.60
2018-11-13T01:15:48.151Z,87.60
2018-11-13T01:18:19.886Z,87.70
2018-11-13T01:20:54.037Z,87.50
2018-11-13T01:23:27.279Z,87.50
2018-11-13T01:25:58.340Z,87.40
2018-11-13T01:28:31.258Z,87.30
2018-11-13T01:31:02.346Z,87.10
2018-11-13T01:33:36.192Z,86.90
2018-11-13T01:36:09.094Z,87.10
2018-11-13T01:38:44.348Z,86.70
2018-11-13T01:41:17.390Z,86.80
2018-11-13T01:43:50.457Z,86.80
2018-11-13T01:46:21.526Z,86.80
2018-11-13T01:48:51.170Z,86.80
2018-11-13T01:51:20.514Z,87.00
2018-11-13T01:53:49.915Z,86.90
2018-11-13T01:56:19.479Z,87.00
2018-11-13T01:58:49.197Z,87.00
2018-11-13T02:01:18.540Z,87.00
2018-11-13T02:03:47.902Z,86.90
2018-11-13T02:06:17.189Z,87.00
2018-11-13T02:08:46.423Z,87.00
2018-11-13T02:11:15.582Z,87.00
2018-11-13T02:13:45.474Z,87.00
2018-11-13T02:16:14.739Z,87.00
2018-11-13T02:18:43.879Z,87.10
2018-11-13T02:21:13.000Z,87.20
2018-11-13T02:23:42.109Z,88.00
2018-11-13T02:26:11.222Z,87.10
2018-11-13T02:28:41.228Z,87.20
2018-11-13T02:31:10.387Z,87.20
2018-11-13T02:33:39.678Z,87.10
2018-11-13T02:36:08.794Z,87.20
2018-11-13T02:38:38.175Z,87.10
2018-11-13T02:41:07.302Z,87.00
2018-11-13T02:43:36.497Z,87.10
2018-11-13T02:46:06.090Z,87.10
2018-11-13T02:48:35.170Z,87.30
2018-11-13T02:51:04.393Z,87.30
2018-11-13T02:53:33.477Z,87.40
2018-11-13T02:56:02.604Z,87.50
2018-11-13T02:58:31.691Z,87.60
2018-11-13T03:01:00.814Z,87.60
2018-11-13T03:03:29.934Z,87.60
2018-11-13T03:05:59.212Z,87.60
2018-11-13T03:08:28.315Z,87.60
2018-11-13T03:10:57.923Z,87.60
2018-11-13T03:13:27.241Z,87.60
2018-11-13T03:15:56.337Z,87.80
2018-11-13T03:18:25.490Z,88.00
2018-11-13T03:20:54.621Z,88.00
2018-11-13T03:23:24.042Z,88.10
2018-11-13T03:25:53.599Z,88.20
2018-11-13T03:28:22.817Z,88.10
2018-11-13T03:30:51.994Z,88.20
2018-11-13T03:33:21.142Z,88.40
2018-11-13T03:35:53.291Z,88.10
2018-11-13T03:38:26.035Z,88.40
2018-11-13T03:40:55.449Z,88.40
2018-11-13T03:43:24.733Z,88.30
2018-11-13T03:45:54.204Z,88.40
2018-11-13T03:48:23.369Z,88.50
2018-11-13T03:50:52.552Z,88.50
2018-11-13T03:53:21.635Z,88.50
2018-11-13T03:55:50.862Z,88.70
2018-11-13T03:58:20.085Z,88.80
2018-11-13T04:00:49.246Z,88.80
2018-11-13T04:03:18.354Z,89.00
2018-11-13T04:05:47.429Z,89.10
2018-11-13T04:08:16.519Z,89.40
2018-11-13T04:10:45.687Z,89.10
2018-11-13T04:13:14.790Z,89.20
2018-11-13T04:15:45.193Z,89.40
2018-11-13T04:18:14.467Z,90.00
2018-11-13T04:20:43.641Z,89.00
2018-11-13T04:23:12.723Z,89.20
2018-11-13T04:25:41.812Z,89.40
2018-11-13T04:28:10.994Z,89.30
2018-11-13T04:30:40.723Z,89.50
2018-11-13T04:33:09.851Z,89.50
2018-11-13T04:35:39.558Z,89.50
2018-11-13T04:38:08.643Z,89.50
2018-11-13T04:40:38.451Z,90.20
2018-11-13T04:43:07.533Z,89.50
2018-11-13T04:45:36.637Z,89.50
2018-11-13T04:48:06.479Z,89.30
2018-11-13T04:50:35.629Z,88.80
2018-11-13T04:53:05.217Z,89.10
2018-11-13T04:55:34.380Z,89.10
2018-11-13T04:58:03.966Z,89.00
2018-11-13T05:00:33.121Z,89.30
2018-11-13T05:03:02.534Z,88.80
2018-11-13T05:05:31.585Z,88.70
2018-11-13T05:08:01.034Z,88.70
2018-11-13T05:10:30.218Z,88.60
2018-11-13T05:12:59.645Z,88.40
2018-11-13T05:15:28.807Z,88.50
2018-11-13T05:17:57.967Z,88.20
2018-11-13T05:20:27.098Z,88.10
2018-11-13T05:22:56.410Z,88.30
2018-11-13T05:25:25.537Z,88.30
2018-11-13T05:27:54.673Z,88.20
2018-11-13T05:30:23.779Z,88.10
2018-11-13T05:32:52.948Z,88.10
2018-11-13T05:35:22.813Z,87.50
2018-11-13T05:37:51.948Z,87.60
2018-11-13T05:40:22.478Z,87.80
2018-11-13T05:42:51.575Z,87.70
2018-11-13T05:45:21.864Z,87.70
2018-11-13T05:47:51.528Z,87.40
2018-11-13T05:50:21.056Z,87.30
2018-11-13T05:52:51.486Z,87.10
2018-11-13T05:55:20.669Z,87.40
2018-11-13T05:57:50.134Z,87.40
2018-11-13T06:00:23.950Z,87.40
2018-11-13T06:02:53.360Z,87.40
2018-11-13T06:05:22.505Z,87.40
2018-11-13T06:07:51.584Z,87.30
2018-11-13T06:10:20.767Z,87.10
2018-11-13T06:12:49.854Z,86.80
2018-11-13T06:15:18.996Z,86.70
2018-11-13T06:17:48.276Z,86.90
2018-11-13T06:20:17.510Z,87.10
2018-11-13T06:22:46.735Z,86.60
2018-11-13T06:25:16.880Z,86.70
2018-11-13T06:27:47.124Z,86.70
2018-11-13T06:30:18.928Z,86.80
2018-11-13T06:32:48.832Z,86.60
2018-11-13T06:35:18.732Z,86.60
2018-11-13T06:37:47.814Z,86.40
2018-11-13T06:40:17.610Z,86.10
2018-11-13T06:42:46.755Z,86.10
2018-11-13T06:45:17.419Z,86.20
2018-11-13T06:47:47.274Z,87.30
2018-11-13T06:50:16.380Z,86.10
2018-11-13T06:52:46.275Z,85.70
2018-11-13T06:55:31.959Z,85.70
2018-11-13T06:58:01.177Z,85.70
2018-11-13T07:00:30.880Z,85.60
2018-11-13T07:03:00.039Z,85.70
2018-11-13T07:05:31.456Z,85.60
2018-11-13T07:08:00.755Z,85.50
2018-11-13T07:10:30.219Z,85.60
2018-11-13T07:12:59.681Z,85.40
2018-11-13T07:15:30.092Z,85.40
2018-11-13T07:18:01.581Z,85.60
2018-11-13T07:20:32.396Z,85.60
2018-11-13T07:23:01.523Z,85.60
2018-11-13T07:25:31.047Z,85.50
2018-11-13T07:28:00.453Z,85.50
2018-11-13T07:30:29.871Z,85.60
2018-11-13T07:32:59.518Z,85.60
2018-11-13T07:35:29.521Z,85.70
2018-11-13T07:37:59.704Z,85.50
2018-11-13T07:40:29.913Z,85.60
2018-11-13T07:42:59.015Z,85.60
2018-11-13T07:45:28.279Z,85.70
2018-11-13T07:47:58.056Z,85.80
2018-11-13T07:50:27.314Z,85.80
2018-11-13T07:52:57.240Z,85.90
2018-11-13T07:55:26.784Z,86.00
2018-11-13T07:57:56.391Z,85.90
2018-11-13T08:00:25.848Z,86.20
2018-11-13T08:02:55.976Z,86.00
2018-11-13T08:05:25.141Z,86.00
2018-11-13T08:07:55.636Z,86.00
2018-11-13T08:10:25.388Z,86.10
2018-11-13T08:12:54.469Z,86.10
2018-11-13T08:15:23.969Z,86.00
2018-11-13T08:17:53.144Z,86.00
2018-11-13T08:20:22.989Z,86.00
2018-11-13T08:22:52.084Z,85.80
2018-11-13T08:25:21.311Z,85.80
2018-11-13T08:27:50.607Z,85.70
2018-11-13T08:30:20.069Z,85.90
2018-11-13T08:32:49.259Z,85.90
2018-11-13T08:35:18.744Z,85.90
2018-11-13T08:37:47.904Z,86.00
2018-11-13T08:40:18.546Z,86.10
2018-11-13T08:42:48.292Z,86.40
2018-11-13T08:45:17.648Z,86.50
2018-11-13T08:47:46.796Z,86.50
2018-11-13T08:50:16.278Z,86.40
2018-11-13T08:52:46.129Z,86.50
2018-11-13T08:55:15.421Z,86.50
2018-11-13T08:57:44.927Z,86.60
2018-11-13T09:00:16.167Z,86.60
2018-11-13T09:02:45.781Z,86.60
2018-11-13T09:05:15.273Z,86.80
2018-11-13T09:07:44.455Z,86.70
2018-11-13T09:10:14.874Z,86.40
2018-11-13T09:12:44.646Z,86.00
2018-11-13T09:15:15.661Z,85.90
2018-11-13T09:17:45.273Z,86.00
2018-11-13T09:20:15.959Z,87.00
2018-11-13T09:22:45.130Z,86.00
2018-11-13T09:25:16.411Z,86.00
2018-11-13T09:27:45.570Z,85.90
2018-11-13T09:30:16.513Z,86.00
2018-11-13T09:32:45.855Z,86.10
2018-11-13T09:35:16.172Z,86.00
2018-11-13T09:37:45.431Z,85.80
2018-11-13T09:40:17.328Z,85.60
2018-11-13T09:42:47.579Z,85.50
2018-11-13T09:45:17.091Z,86.30
2018-11-13T09:47:46.334Z,85.40
2018-11-13T09:50:17.706Z,85.50
2018-11-13T09:52:48.167Z,85.40
2018-11-13T09:55:18.791Z,85.30
2018-11-13T09:57:48.539Z,85.30
2018-11-13T10:00:25.563Z,85.30
2018-11-13T10:02:57.747Z,85.10
2018-11-13T10:05:26.602Z,84.70
2018-11-13T10:07:57.908Z,84.70
2018-11-13T10:10:27.334Z,84.30
2018-11-13T10:12:56.571Z,84.40
2018-11-13T10:15:27.543Z,84.00
2018-11-13T10:17:57.770Z,83.40
2018-11-13T10:20:27.319Z,82.80
2018-11-13T10:22:59.541Z,82.30
2018-11-13T10:25:30.879Z,81.50
2018-11-13T10:28:02.916Z,81.70
2018-11-13T10:30:33.930Z,80.00
2018-11-13T10:33:03.556Z,80.00
2018-11-13T10:35:32.755Z,79.20
2018-11-13T10:38:02.803Z,78.90
2018-11-13T10:40:32.087Z,79.10
2018-11-13T10:43:01.252Z,78.20
2018-11-13T10:45:30.464Z,77.50
2018-11-13T10:48:00.895Z,77.60
2018-11-13T10:50:30.139Z,76.90
2018-11-13T10:52:59.535Z,76.70
2018-11-13T10:55:29.014Z,77.00
2018-11-13T10:57:58.382Z,77.00
2018-11-13T11:00:33.003Z,77.30
2018-11-13T11:03:10.024Z,77.00
2018-11-13T11:05:40.085Z,76.40
2018-11-13T11:08:10.243Z,76.60
2018-11-13T11:10:39.971Z,76.00
2018-11-13T11:13:09.257Z,75.60
2018-11-13T11:15:39.374Z,75.90
2018-11-13T11:18:08.681Z,77.10
2018-11-13T11:20:39.292Z,77.00
2018-11-13T11:23:10.315Z,76.60
2018-11-13T11:25:40.002Z,76.40
2018-11-13T11:28:10.636Z,76.60
2018-11-13T11:30:40.415Z,76.30
2018-11-13T11:33:10.037Z,76.40
2018-11-13T11:35:39.180Z,76.40
2018-11-13T11:38:08.316Z,76.10
2018-11-13T11:40:37.484Z,76.20
2018-11-13T11:43:07.010Z,76.20
2018-11-13T11:45:37.253Z,75.80
2018-11-13T11:48:06.588Z,75.20
2018-11-13T11:50:35.727Z,75.30
2018-11-13T11:53:05.707Z,75.00
2018-11-13T11:55:34.864Z,75.50
2018-11-13T11:58:04.255Z,75.20
2018-11-13T12:00:34.817Z,75.10
2018-11-13T12:03:04.383Z,74.30
2018-11-13T12:05:33.771Z,75.00
2018-11-13T12:08:02.886Z,74.30
2018-11-13T12:10:32.411Z,73.80
2018-11-13T12:13:01.631Z,73.60
2018-11-13T12:15:31.344Z,72.70
2018-11-13T12:18:00.799Z,71.80
2018-11-13T12:20:30.043Z,71.10
2018-11-13T12:22:59.295Z,72.20
2018-11-13T12:25:28.709Z,71.80
2018-11-13T12:27:58.043Z,70.30
2018-11-13T12:30:27.215Z,70.90
2018-11-13T12:32:56.452Z,68.80
2018-11-13T12:35:25.571Z,70.50
2018-11-13T12:37:55.109Z,70.90
2018-11-13T12:40:25.565Z,71.70
2018-11-13T12:42:54.742Z,70.00
2018-11-13T12:45:23.961Z,69.20
2018-11-13T12:47:53.408Z,68.70
2018-11-13T12:50:22.611Z,68.90
2018-11-13T12:52:51.734Z,69.30
2018-11-13T12:55:22.406Z,69.80
2018-11-13T12:57:51.931Z,69.40
2018-11-13T13:00:23.219Z,70.20
2018-11-13T13:02:52.377Z,70.30
2018-11-13T13:05:22.520Z,69.90
2018-11-13T13:07:52.099Z,69.50
2018-11-13T13:10:22.189Z,69.60
2018-11-13T13:12:51.330Z,69.20
2018-11-13T13:15:20.683Z,68.70
2018-11-13T13:17:49.919Z,68.10
2018-11-13T13:20:21.584Z,67.40
2018-11-13T13:22:52.419Z,68.20
2018-11-13T13:25:23.123Z,67.70
2018-11-13T13:27:52.258Z,66.70
2018-11-13T13:30:23.066Z,67.40
2018-11-13T13:32:52.561Z,67.20
2018-11-13T13:35:58.543Z,67.40
2018-11-13T13:38:27.729Z,67.40
2018-11-13T13:40:58.419Z,67.40
2018-11-13T13:43:28.871Z,66.80
2018-11-13T13:45:58.237Z,66.10
2018-11-13T13:48:27.669Z,65.20
2018-11-13T13:50:57.005Z,65.80
2018-11-13T13:53:27.251Z,66.50
2018-11-13T13:55:56.450Z,67.10
2018-11-13T13:58:26.219Z,68.40
2018-11-13T14:00:56.342Z,67.50
2018-11-13T14:03:25.400Z,67.40
2018-11-13T14:05:55.064Z,67.30
2018-11-13T14:08:24.256Z,66.60
2018-11-13T14:10:53.360Z,66.10
2018-11-13T14:13:22.634Z,66.40
2018-11-13T14:15:51.992Z,65.70
2018-11-13T14:18:21.165Z,65.60
2018-11-13T14:20:50.395Z,65.60
2018-11-13T14:23:19.713Z,65.40
2018-11-13T14:25:49.503Z,66.00
2018-11-13T14:28:18.938Z,65.40
2018-11-13T14:30:48.406Z,66.20
2018-11-13T14:33:17.643Z,65.90
2018-11-13T14:35:46.956Z,66.30
2018-11-13T14:38:16.846Z,66.30
2018-11-13T14:40:47.764Z,67.10
2018-11-13T14:43:16.977Z,67.80
2018-11-13T14:45:49.216Z,68.30
2018-11-13T14:48:18.578Z,68.50
2018-11-13T14:50:48.486Z,68.30
2018-11-13T14:53:17.958Z,68.70
2018-11-13T14:55:48.356Z,68.00
2018-11-13T14:58:17.877Z,68.20
2018-11-13T15:00:47.117Z,68.60
2018-11-13T15:03:17.695Z,68.60
2018-11-13T15:05:47.249Z,68.90
2018-11-13T15:08:17.859Z,67.80
2018-11-13T15:10:52.134Z,68.30
2018-11-13T15:13:22.511Z,67.80
2018-11-13T15:15:51.752Z,68.20
2018-11-13T15:18:21.455Z,68.40
2018-11-13T15:20:51.737Z,68.50
2018-11-13T15:23:21.588Z,68.70
2018-11-13T15:25:50.900Z,68.20
2018-11-13T15:28:21.714Z,67.90
2018-11-13T15:30:51.632Z,68.50
2018-11-13T15:33:22.460Z,68.30
2018-11-13T15:35:51.604Z,69.20
2018-11-13T15:38:20.683Z,68.70
2018-11-13T15:40:49.847Z,69.00
2018-11-13T15:43:19.115Z,69.10
2018-11-13T15:45:48.438Z,69.70
2018-11-13T15:48:18.147Z,69.30
2018-11-13T15:50:48.313Z,69.50
2018-11-13T15:53:17.383Z,69.70
2018-11-13T15:55:46.472Z,69.90
2018-11-13T15:58:16.634Z,70.10
2018-11-13T16:00:46.435Z,70.10
2018-11-13T16:03:17.904Z,70.00
2018-11-13T16:05:48.892Z,70.40
2018-11-13T16:08:18.260Z,70.70
2018-11-13T16:10:47.438Z,70.80
2018-11-13T16:13:16.635Z,71.00
2018-11-13T16:15:46.304Z,71.10
2018-11-13T16:18:18.046Z,71.10
2018-11-13T16:20:47.307Z,71.20
2018-11-13T16:23:16.641Z,71.30
2018-11-13T16:25:46.269Z,71.20
2018-11-13T16:28:15.771Z,71.20
2018-11-13T16:30:45.233Z,71.20
2018-11-13T16:33:14.327Z,71.40
2018-11-13T16:35:43.580Z,71.20
2018-11-13T16:38:13.323Z,71.30
2018-11-13T16:40:42.600Z,71.50
2018-11-13T16:43:12.071Z,71.60
2018-11-13T16:45:41.419Z,71.40
2018-11-13T16:48:10.635Z,71.50
2018-11-13T16:50:41.925Z,71.50
2018-11-13T16:53:11.483Z,71.70
2018-11-13T16:55:46.099Z,71.70
2018-11-13T16:58:16.184Z,71.70
2018-11-13T17:00:45.499Z,72.70
2018-11-13T17:03:14.667Z,72.10
2018-11-13T17:05:43.879Z,72.10
2018-11-13T17:08:13.084Z,72.20
2018-11-13T17:10:43.339Z,72.20
2018-11-13T17:13:12.487Z,72.20
2018-11-13T17:15:41.829Z,72.30
2018-11-13T17:18:11.056Z,72.20
2018-11-13T17:20:41.213Z,72.30
2018-11-13T17:23:10.423Z,73.60
2018-11-13T17:25:40.612Z,73.90
2018-11-13T17:28:09.825Z,73.90
2018-11-13T17:30:39.439Z,73.70
2018-11-13T17:33:10.079Z,73.90
2018-11-13T17:35:39.936Z,74.00
2018-11-13T17:38:10.454Z,75.00
2018-11-13T17:40:40.381Z,74.10
2018-11-13T17:43:09.567Z,74.10
2018-11-13T17:45:40.651Z,74.10
2018-11-13T17:48:11.052Z,74.10
2018-11-13T17:50:42.036Z,74.10
2018-11-13T17:53:11.913Z,74.30
2018-11-13T17:55:41.956Z,74.30
2018-11-13T17:58:13.099Z,74.40
2018-11-13T18:00:44.713Z,74.50
2018-11-13T18:03:14.694Z,74.50
2018-11-13T18:05:44.814Z,74.60
2018-11-13T18:08:14.243Z,74.90
2018-11-13T18:10:45.026Z,74.70
2018-11-13T18:13:14.158Z,74.70
2018-11-13T18:15:43.656Z,74.90
2018-11-13T18:18:12.842Z,75.00
2018-11-13T18:20:42.677Z,74.90
2018-11-13T18:23:12.010Z,74.90
2018-11-13T18:25:41.179Z,75.00
2018-11-13T18:28:10.509Z,75.00
2018-11-13T18:30:40.202Z,75.00
2018-11-13T18:33:10.027Z,74.80
2018-11-13T18:35:40.444Z,75.70
2018-11-13T18:38:11.679Z,75.00
2018-11-13T18:40:40.875Z,75.00
2018-11-13T18:43:10.413Z,74.90
2018-11-13T18:45:41.143Z,75.00
2018-11-13T18:48:10.759Z,75.00
2018-11-13T18:50:42.181Z,75.00
2018-11-13T18:53:11.426Z,75.10
2018-11-13T18:55:41.464Z,75.20
2018-11-13T18:58:10.996Z,75.10
2018-11-13T19:00:41.488Z,75.20
2018-11-13T19:03:12.156Z,75.20
2018-11-13T19:05:41.569Z,75.40
2018-11-13T19:08:10.883Z,75.20
2018-11-13T19:10:45.406Z,75.40
2018-11-13T19:13:22.982Z,75.40
2018-11-13T19:15:53.888Z,75.60
2018-11-13T19:18:23.640Z,75.50
2018-11-13T19:20:53.069Z,75.50
2018-11-13T19:23:23.024Z,75.60
2018-11-13T19:25:52.401Z,75.60
2018-11-13T19:28:22.235Z,75.60
2018-11-13T19:30:51.551Z,75.70
2018-11-13T19:33:21.923Z,76.60
2018-11-13T19:35:52.091Z,75.90
2018-11-13T19:38:21.770Z,75.80
2018-11-13T19:40:51.167Z,76.00
2018-11-13T19:43:20.417Z,76.00
2018-11-13T19:45:49.920Z,76.10
2018-11-13T19:48:19.249Z,76.30
2018-11-13T19:50:50.869Z,76.20
2018-11-13T19:53:22.142Z,76.40
2018-11-13T19:55:54.945Z,76.50
2018-11-13T19:58:25.153Z,76.50
2018-11-13T20:00:54.699Z,76.60
2018-11-13T20:03:24.140Z,76.50
2018-11-13T20:05:53.456Z,76.70
2018-11-13T20:08:22.738Z,76.60
2018-11-13T20:10:52.144Z,76.50
2018-11-13T20:13:21.429Z,76.50
2018-11-13T20:15:51.416Z,76.60
2018-11-13T20:18:20.580Z,76.70
2018-11-13T20:20:50.411Z,76.80
2018-11-13T20:23:20.449Z,77.00
2018-11-13T20:25:49.815Z,77.10
2018-11-13T20:28:19.032Z,77.10
2018-11-13T20:30:48.907Z,77.30
2018-11-13T20:33:18.330Z,77.40
2018-11-13T20:35:48.112Z,77.30
2018-11-13T20:38:18.242Z,77.40
2018-11-13T20:40:47.595Z,77.40
2018-11-13T20:43:16.809Z,77.30
2018-11-13T20:45:46.619Z,77.40
2018-11-13T20:48:16.404Z,77.60
2018-11-13T20:50:45.579Z,77.60
2018-11-13T20:53:14.999Z,77.60
2018-11-13T20:55:44.547Z,77.50
2018-11-13T20:58:13.787Z,77.60
2018-11-13T21:00:43.128Z,77.70
2018-11-13T21:03:12.379Z,77.60
2018-11-13T21:05:41.867Z,77.80
2018-11-13T21:08:11.446Z,78.70
2018-11-13T21:10:41.692Z,78.10
2018-11-13T21:13:10.996Z,78.00
2018-11-13T21:15:40.856Z,78.20
2018-11-13T21:18:10.121Z,78.20
2018-11-13T21:20:41.765Z,78.40
2018-11-13T21:23:11.519Z,78.40
2018-11-13T21:25:41.307Z,78.40
2018-11-13T21:28:11.159Z,78.30
2018-11-13T21:30:40.745Z,78.10
2018-11-13T21:33:12.358Z,78.20
2018-11-13T21:35:43.217Z,78.10
2018-11-13T21:38:16.163Z,78.20
2018-11-13T21:40:49.161Z,78.40
2018-11-13T21:43:19.980Z,78.10
2018-11-13T21:45:49.324Z,78.20
2018-11-13T21:48:18.661Z,78.30
2018-11-13T21:50:47.968Z,78.50
2018-11-13T21:53:17.137Z,78.90
2018-11-13T21:55:46.345Z,78.60
2018-11-13T21:58:15.543Z,78.60
2018-11-13T22:00:47.171Z,78.40
2018-11-13T22:03:17.306Z,78.40
2018-11-13T22:05:47.163Z,78.40
2018-11-13T22:08:17.181Z,78.40
2018-11-13T22:10:46.310Z,78.50
2018-11-13T22:13:15.415Z,78.60
2018-11-13T22:15:44.912Z,78.70
2018-11-13T22:18:15.454Z,78.80
2018-11-13T22:20:45.579Z,79.00
2018-11-13T22:23:14.873Z,78.80
2018-11-13T22:25:45.019Z,78.80
2018-11-13T22:28:14.541Z,78.70
2018-11-13T22:30:43.838Z,79.50
2018-11-13T22:33:12.964Z,78.80
2018-11-13T22:35:42.204Z,78.70
2018-11-13T22:38:11.760Z,78.70
2018-11-13T22:40:41.201Z,78.70
2018-11-13T22:43:10.373Z,78.30
2018-11-13T22:45:40.078Z,78.00
2018-11-13T22:48:09.348Z,77.90
2018-11-13T22:50:39.835Z,77.70
2018-11-13T22:53:09.370Z,77.80
2018-11-13T22:55:39.691Z,78.00
2018-11-13T22:58:09.078Z,78.10
2018-11-13T23:00:41.351Z,78.50
2018-11-13T23:03:12.066Z,78.50
2018-11-13T23:05:41.447Z,78.80
2018-11-13T23:08:12.125Z,78.90
2018-11-13T23:10:41.499Z,79.10
2018-11-13T23:13:11.128Z,79.20
2018-11-13T23:15:41.697Z,79.10
2018-11-13T23:18:12.178Z,79.20
2018-11-13T23:20:41.721Z,79.20
2018-11-13T23:23:11.021Z,79.60
2018-11-13T23:25:40.717Z,79.70
2018-11-13T23:28:10.081Z,79.90
2018-11-13T23:30:39.651Z,80.00
2018-11-13T23:33:09.428Z,80.00
2018-11-13T23:35:38.452Z,80.00
2018-11-13T23:38:07.607Z,80.10
2018-11-13T23:40:36.784Z,80.10
2018-11-13T23:43:06.081Z,80.30
2018-11-13T23:45:35.462Z,80.80
2018-11-13T23:48:05.839Z,80.30
2018-11-13T23:50:35.018Z,80.30
2018-11-13T23:53:04.738Z,80.30
2018-11-13T23:55:34.107Z,80.30
2018-11-13T23:58:03.219Z,80.30
